Time;durP1;ratioP1;P1;durP2;ratioP2;P2;SDS_P1;SDS_P2;PMS_P1;PMS_P2;Temp;Humidity;BMP_temperature;BMP_pressure;BME280_temperature;BME280_humidity;BME280_pressure;Samples;Min_cycle;Max_cycle;Signal;HPM_P1;HPM_P2
2023/04/15 00:01:06;;;;;;;;;;;;;;;4.65;100.00;94629.22;10526871;28;1120;-81
2023/04/15 00:06:11;;;;;;;;;;;;;;;4.67;100.00;94632.41;10519254;28;1430;-80
2023/04/15 00:11:17;;;;;;;;;;;;;;;4.73;100.00;94626.03;10497767;28;1922;-81
2023/04/15 00:16:31;;;;;;;;;;;;;;;4.70;100.00;94631.06;10530700;28;1440;-81
2023/04/15 00:21:36;;;;;;;;;;;;;;;4.66;100.00;94624.69;10516338;28;1180;-82
2023/04/15 00:26:40;;;;;;;;;;;;;;;4.65;100.00;94617.78;10481560;28;1550;-82
2023/04/15 00:31:49;;;;;;;;;;;;;;;4.71;100.00;94606.03;10503881;28;1975;-81
2023/04/15 00:36:54;;;;;;;;;;;;;;;4.66;100.00;94606.88;10505230;28;1117;-81
2023/04/15 00:42:05;;;;;;;;;;;;;;;4.65;100.00;94607.94;10526225;28;1467;-81
2023/04/15 00:47:11;;;;;;;;;;;;;;;4.65;100.00;94601.81;10498602;28;1136;-81
2023/04/15 00:52:14;;;;;;;;;;;;;;;4.64;100.00;94595.66;10508960;28;1979;-80
2023/04/15 00:57:28;;;;;;;;;;;;;;;4.60;100.00;94599.94;10535660;28;1228;-80
2023/04/15 01:02:32;;;;;;;;;;;;;;;4.63;100.00;94603.91;10500793;28;1507;-81
2023/04/15 01:07:36;;;;;;;;;;;;;;;4.61;100.00;94607.66;10536250;28;1175;-82
2023/04/15 01:12:43;;;;;;;;;;;;;;;4.62;100.00;94611.09;10520832;28;1915;-81
2023/04/15 01:17:46;;;;;;;;;;;;;;;4.57;100.00;94598.59;10520458;28;1487;-82
2023/04/15 01:22:52;;;;;;;;;;;;;;;4.57;100.00;94603.09;10521857;28;1550;-82
2023/04/15 01:27:55;;;;;;;;;;;;;;;4.55;100.00;94603.38;10513526;28;1670;-82
2023/04/15 01:33:00;;;;;;;;;;;;;;;4.57;100.00;94605.78;10534669;28;1914;-81
2023/04/15 01:38:03;;;;;;;;;;;;;;;4.56;100.00;94601.50;10525421;28;1162;-83
2023/04/15 01:43:08;;;;;;;;;;;;;;;4.57;100.00;94603.09;10574491;28;1434;-82
2023/04/15 01:48:11;;;;;;;;;;;;;;;4.57;100.00;94611.09;10546416;28;1175;-80
2023/04/15 01:53:17;;;;;;;;;;;;;;;4.58;100.00;94602.88;10536275;28;1921;-83
2023/04/15 01:58:21;;;;;;;;;;;;;;;4.54;100.00;94606.31;10513417;28;1360;-81
2023/04/15 02:03:27;;;;;;;;;;;;;;;4.58;100.00;94599.38;10536115;28;1462;-83
2023/04/15 02:08:35;;;;;;;;;;;;;;;4.61;100.00;94602.31;10535370;28;1159;-82
2023/04/15 02:13:39;;;;;;;;;;;;;;;4.57;100.00;94597.78;10510678;28;1959;-82
2023/04/15 02:18:50;;;;;;;;;;;;;;;4.61;100.00;94597.00;10509008;28;1494;-82
2023/04/15 02:23:56;;;;;;;;;;;;;;;4.59;100.00;94598.34;10535356;28;1621;-83
2023/04/15 02:28:59;;;;;;;;;;;;;;;4.62;100.00;94603.13;10535976;28;1424;-82
2023/04/15 02:34:04;;;;;;;;;;;;;;;4.63;100.00;94599.38;10515972;28;1914;-83
2023/04/15 02:39:07;;;;;;;;;;;;;;;4.60;100.00;94594.59;10503845;28;1140;-82
2023/04/15 02:44:12;;;;;;;;;;;;;;;4.61;100.00;94590.88;10541410;28;1488;-82
2023/04/15 02:49:16;;;;;;;;;;;;;;;4.56;100.00;94590.88;10514908;28;1105;-83
2023/04/15 02:54:21;;;;;;;;;;;;;;;4.59;100.00;94593.81;10533538;28;1925;-83
2023/04/15 02:59:25;;;;;;;;;;;;;;;4.58;100.00;94596.72;10516905;28;1412;-83
2023/04/15 03:04:29;;;;;;;;;;;;;;;4.62;100.00;94592.47;10532918;28;1474;-83
2023/04/15 03:09:32;;;;;;;;;;;;;;;4.60;100.00;94597.28;10558273;28;1308;-82
2023/04/15 03:14:39;;;;;;;;;;;;;;;4.66;100.00;94598.88;10523030;28;1973;-81
2023/04/15 03:19:42;;;;;;;;;;;;;;;4.63;100.00;94603.91;10523396;28;1260;-82
2023/04/15 03:24:46;;;;;;;;;;;;;;;4.60;100.00;94610.59;10530000;28;1630;-82
2023/04/15 03:29:48;;;;;;;;;;;;;;;4.63;100.00;94610.03;10545801;28;1677;-83
2023/04/15 03:34:53;;;;;;;;;;;;;;;4.60;100.00;94610.59;10577399;28;1961;-81
2023/04/15 03:39:57;;;;;;;;;;;;;;;4.54;100.00;94611.63;10506727;28;1439;-82
2023/04/15 03:45:01;;;;;;;;;;;;;;;4.54;100.00;94611.63;10523077;28;1151;-81
2023/04/15 03:50:06;;;;;;;;;;;;;;;4.48;100.00;94616.16;10535049;28;1902;-81
2023/04/15 03:55:19;;;;;;;;;;;;;;;4.48;100.00;94610.03;10534721;28;1167;-81
2023/04/15 04:00:22;;;;;;;;;;;;;;;4.44;100.00;94611.59;10536116;28;1409;-82
2023/04/15 04:05:27;;;;;;;;;;;;;;;4.44;100.00;94615.06;10521533;28;1467;-83
2023/04/15 04:10:34;;;;;;;;;;;;;;;4.40;100.00;94616.66;10522242;28;1902;-83
2023/04/15 04:15:40;;;;;;;;;;;;;;;4.38;100.00;94615.31;10540220;28;1494;-83
2023/04/15 04:20:44;;;;;;;;;;;;;;;4.37;100.00;94614.50;10533312;28;1357;-83
2023/04/15 04:25:57;;;;;;;;;;;;;;;4.31;100.00;94613.69;10513934;28;1096;-81
2023/04/15 04:31:00;;;;;;;;;;;;;;;4.40;100.00;94615.88;10539419;28;1906;-83
2023/04/15 04:36:04;;;;;;;;;;;;;;;4.38;100.00;94617.97;10518182;28;1446;-82
2023/04/15 04:41:08;;;;;;;;;;;;;;;4.41;100.00;94609.47;10506242;28;1448;-84
2023/04/15 04:46:11;;;;;;;;;;;;;;;4.41;100.00;94620.13;10528420;28;1045;-82
2023/04/15 04:51:17;;;;;;;;;;;;;;;4.52;100.00;94619.09;10509225;28;1926;-84
2023/04/15 04:56:20;;;;;;;;;;;;;;;4.63;100.00;94610.03;10532506;28;1190;-83
2023/04/15 05:01:25;;;;;;;;;;;;;;;4.66;100.00;94614.84;10517658;28;1470;-82
2023/04/15 05:06:31;;;;;;;;;;;;;;;4.79;100.00;94619.66;10507711;28;1518;-84
2023/04/15 05:11:37;;;;;;;;;;;;;;;4.84;100.00;94609.00;10535869;28;1914;-82
2023/04/15 05:16:43;;;;;;;;;;;;;;;4.88;100.00;94602.06;10532690;28;1175;-82
2023/04/15 05:21:46;;;;;;;;;;;;;;;4.89;100.00;94606.31;10515323;28;1459;-82
2023/04/15 05:26:49;;;;;;;;;;;;;;;4.96;100.00;94607.94;10550541;28;1520;-82
2023/04/15 05:31:53;;;;;;;;;;;;;;;5.01;100.00;94613.25;10519606;28;1909;-82
2023/04/15 05:36:56;;;;;;;;;;;;;;;4.99;100.00;94612.72;10530492;28;1291;-81
2023/04/15 05:42:00;;;;;;;;;;;;;;;4.98;100.00;94601.28;10497214;28;1513;-83
2023/04/15 05:47:06;;;;;;;;;;;;;;;5.04;100.00;94610.06;10529756;28;1235;-82
2023/04/15 05:52:10;;;;;;;;;;;;;;;5.06;100.00;94603.41;10532374;28;1913;-82
2023/04/15 05:57:13;;;;;;;;;;;;;;;5.15;100.00;94601.00;10518936;28;1214;-82
2023/04/15 06:02:19;;;;;;;;;;;;;;;5.20;100.00;94595.66;10526293;28;1420;-82
2023/04/15 06:07:27;;;;;;;;;;;;;;;5.26;100.00;94607.13;10531832;28;1088;-81
2023/04/15 06:12:30;;;;;;;;;;;;;;;5.34;100.00;94610.06;10538551;28;1919;-81
2023/04/15 06:17:34;;;;;;;;;;;;;;;5.45;100.00;94610.03;10509285;28;1522;-82
2023/04/15 06:22:40;;;;;;;;;;;;;;;5.52;100.00;94615.88;10532170;28;1494;-81
2023/04/15 06:27:43;;;;;;;;;;;;;;;5.68;100.00;94612.09;10542823;28;1362;-82
2023/04/15 06:32:48;;;;;;;;;;;;;;;5.73;100.00;94598.78;10539119;28;1901;-83
2023/04/15 06:37:55;;;;;;;;;;;;;;;5.67;100.00;94603.31;10518102;28;1101;-82
2023/04/15 06:42:59;;;;;;;;;;;;;;;6.06;100.00;94609.88;10507724;28;1534;-81
2023/04/15 06:48:03;;;;;;;;;;;;;;;6.03;100.00;94607.75;10484686;28;1502;-80
2023/04/15 06:53:11;;;;;;;;;;;;;;;6.30;100.00;94599.34;10528785;28;1972;-82
2023/04/15 06:58:14;;;;;;;;;;;;;;;6.75;100.00;94611.66;10516277;28;1519;-80
2023/04/15 07:03:17;;;;;;;;;;;;;;;7.02;100.00;94608.50;10538128;28;1426;-81
2023/04/15 07:08:21;;;;;;;;;;;;;;;6.99;100.00;94601.03;10507144;28;1357;-81
2023/04/15 07:13:24;;;;;;;;;;;;;;;7.63;100.00;94607.94;10534499;28;1902;-81
2023/04/15 07:18:30;;;;;;;;;;;;;;;7.64;100.00;94601.53;10518858;28;1167;-82
2023/04/15 07:23:33;;;;;;;;;;;;;;;8.10;100.00;94609.84;10529129;28;1472;-82
2023/04/15 07:28:36;;;;;;;;;;;;;;;7.80;100.00;94607.50;10518256;28;1538;-80
2023/04/15 07:33:40;;;;;;;;;;;;;;;8.30;100.00;94608.00;10543876;28;1956;-80
2023/04/15 07:38:43;;;;;;;;;;;;;;;8.40;100.00;94613.25;10536662;28;1203;-81
2023/04/15 07:43:48;;;;;;;;;;;;;;;8.17;100.00;94614.84;10537922;28;1689;-79
2023/04/15 07:48:53;;;;;;;;;;;;;;;9.25;100.00;94606.13;10540202;28;1479;-78
2023/04/15 07:54:03;;;;;;;;;;;;;;;9.25;100.00;94611.47;10513821;28;1918;-81
2023/04/15 07:59:06;;;;;;;;;;;;;;;9.51;100.00;94607.28;10524915;28;1452;-79
2023/04/15 08:04:09;;;;;;;;;;;;;;;9.84;100.00;94601.84;10529517;28;1388;-81
2023/04/15 08:09:16;;;;;;;;;;;;;;;9.87;100.00;94601.28;10534002;28;1087;-82
2023/04/15 08:14:23;;;;;;;;;;;;;;;9.90;100.00;94606.03;10532341;28;1968;-80
2023/04/15 08:19:26;;;;;;;;;;;;;;;9.56;100.00;94591.09;10534927;28;1210;-78
2023/04/15 08:24:30;;;;;;;;;;;;;;;9.80;100.00;94595.47;10514706;28;1704;-80
2023/04/15 08:29:34;;;;;;;;;;;;;;;9.80;100.00;94595.47;10507872;28;1428;-81
2023/04/15 08:34:37;;;;;;;;;;;;;;;10.14;100.00;94595.91;10525011;28;1973;-81
2023/04/15 08:39:44;;;;;;;;;;;;;;;10.15;100.00;94586.75;10520045;28;1101;-80
2023/04/15 08:44:48;;;;;;;;;;;;;;;10.36;100.00;94597.09;10498489;28;1452;-78
2023/04/15 08:50:02;;;;;;;;;;;;;;;10.14;100.00;94590.53;10524006;28;1503;-81
2023/04/15 08:55:05;;;;;;;;;;;;;;;9.66;100.00;94596.28;10503013;28;1918;-80
2023/04/15 09:00:09;;;;;;;;;;;;;;;9.75;100.00;94607.13;10504236;28;1541;-80
2023/04/15 09:05:16;;;;;;;;;;;;;;;9.64;100.00;94608.41;10531458;28;1447;-78
2023/04/15 09:10:21;;;;;;;;;;;;;;;9.98;100.00;94599.97;10490376;28;1466;-79
2023/04/15 09:15:24;;;;;;;;;;;;;;;9.97;100.00;94620.66;10519299;28;1902;-80
2023/04/15 09:20:36;;;;;;;;;;;;;;;10.37;100.00;94628.25;10526767;28;1574;-80
2023/04/15 09:25:41;;;;;;;;;;;;;;;9.96;100.00;94623.66;10509665;28;1160;-81
2023/04/15 09:30:46;;;;;;;;;;;;;;;10.17;100.00;94624.84;10501434;28;1502;-80
2023/04/15 09:35:53;;;;;;;;;;;;;;;10.02;100.00;94630.50;10525207;28;1989;-80
2023/04/15 09:41:00;;;;;;;;;;;;;;;10.42;100.00;94633.50;10524983;28;1444;-79
2023/04/15 09:46:04;;;;;;;;;;;;;;;9.83;100.00;94632.47;10520913;28;1430;-79
2023/04/15 09:51:31;;;;;;;;;;;;;;;9.56;100.00;94633.22;10563682;27;1445;-78
2023/04/15 09:56:35;;;;;;;;;;;;;;;9.34;100.00;94648.06;10524943;28;1481;-81
2023/04/15 10:01:37;;;;;;;;;;;;;;;9.49;100.00;94644.34;10529560;28;1155;-80
2023/04/15 10:06:40;;;;;;;;;;;;;;;9.66;100.00;94647.25;10530972;28;1914;-79
2023/04/15 10:11:43;;;;;;;;;;;;;;;9.52;100.00;94649.09;10550008;28;2232;-79
2023/04/15 10:16:47;;;;;;;;;;;;;;;9.87;100.00;94638.84;10532795;28;1195;-80
2023/04/15 10:21:52;;;;;;;;;;;;;;;9.76;100.00;94638.25;10522432;28;1505;-80
2023/04/15 10:26:54;;;;;;;;;;;;;;;9.88;100.00;94648.50;10532266;28;1982;-80
2023/04/15 10:31:57;;;;;;;;;;;;;;;10.03;100.00;94654.38;10530071;28;1672;-80
2023/04/15 10:37:01;;;;;;;;;;;;;;;10.69;100.00;94655.00;10528603;28;1180;-80
2023/04/15 10:42:04;;;;;;;;;;;;;;;10.34;98.11;94655.72;10530671;28;1454;-80
2023/04/15 10:47:06;;;;;;;;;;;;;;;10.54;98.63;94648.03;10532929;28;1913;-80
2023/04/15 10:52:10;;;;;;;;;;;;;;;10.49;98.81;94655.41;10570205;28;1510;-79
2023/04/15 10:57:12;;;;;;;;;;;;;;;10.43;97.84;94654.72;10563853;28;1399;-79
2023/04/15 11:02:21;;;;;;;;;;;;;;;10.54;100.00;94663.34;10536576;28;1496;-80
2023/04/15 11:07:24;;;;;;;;;;;;;;;10.57;98.18;94661.97;10542783;28;1918;-80
2023/04/15 11:12:26;;;;;;;;;;;;;;;10.39;98.84;94658.31;10543104;28;1391;-79
2023/04/15 11:17:29;;;;;;;;;;;;;;;9.65;100.00;94664.44;10549702;28;1159;-81
2023/04/15 11:22:33;;;;;;;;;;;;;;;9.71;100.00;94660.59;10552775;28;1514;-78
2023/04/15 11:27:37;;;;;;;;;;;;;;;9.55;100.00;94664.63;10546803;28;1989;-79
2023/04/15 11:32:40;;;;;;;;;;;;;;;9.19;100.00;94672.44;10540934;28;1507;-80
2023/04/15 11:37:43;;;;;;;;;;;;;;;9.15;100.00;94666.84;10538040;28;1148;-78
2023/04/15 11:42:46;;;;;;;;;;;;;;;8.95;100.00;94677.88;10540370;28;1407;-78
2023/04/15 11:47:52;;;;;;;;;;;;;;;8.69;100.00;94668.59;10545787;28;1914;-78
2023/04/15 11:52:54;;;;;;;;;;;;;;;8.97;100.00;94673.03;10522650;28;2007;-81
2023/04/15 11:57:57;;;;;;;;;;;;;;;9.16;100.00;94676.50;10532912;28;1144;-80
2023/04/15 12:02:59;;;;;;;;;;;;;;;9.53;100.00;94687.47;10530876;28;1443;-82
2023/04/15 12:08:02;;;;;;;;;;;;;;;9.50;100.00;94680.00;10538746;28;1971;-79
2023/04/15 12:13:05;;;;;;;;;;;;;;;9.60;100.00;94690.56;10536740;28;1475;-79
2023/04/15 12:18:07;;;;;;;;;;;;;;;9.67;100.00;94696.34;10520300;28;1560;-80
2023/04/15 12:23:10;;;;;;;;;;;;;;;9.70;100.00;94693.88;10530817;28;1412;-81
2023/04/15 12:28:13;;;;;;;;;;;;;;;9.87;100.00;94697.91;10537441;28;1967;-79
2023/04/15 12:33:16;;;;;;;;;;;;;;;9.98;99.27;94697.41;10528921;28;1700;-80
2023/04/15 12:38:20;;;;;;;;;;;;;;;9.92;96.03;94701.28;10553199;28;1171;-81
2023/04/15 12:43:23;;;;;;;;;;;;;;;9.37;96.86;94711.84;10535250;28;1451;-80
2023/04/15 12:48:25;;;;;;;;;;;;;;;9.20;91.52;94720.41;10537820;28;1905;-81
2023/04/15 12:53:29;;;;;;;;;;;;;;;9.12;88.08;94726.44;10533639;28;1507;-80
2023/04/15 12:58:32;;;;;;;;;;;;;;;9.00;84.69;94728.72;10519169;28;1195;-82
2023/04/15 13:03:34;;;;;;;;;;;;;;;8.88;86.81;94731.03;10529411;28;1442;-80
2023/04/15 13:08:37;;;;;;;;;;;;;;;8.77;92.47;94730.34;10537700;28;1902;-80
2023/04/15 13:13:56;;;;;;;;;;;;;;;8.27;96.15;94743.25;10525158;28;1436;-80
2023/04/15 13:18:59;;;;;;;;;;;;;;;8.37;100.00;94745.03;10535849;28;1199;-79
2023/04/15 13:24:02;;;;;;;;;;;;;;;8.38;100.00;94760.81;10530101;28;1609;-80
2023/04/15 13:29:06;;;;;;;;;;;;;;;8.46;100.00;94766.63;10536941;28;1967;-79
2023/04/15 13:34:09;;;;;;;;;;;;;;;8.57;100.00;94766.22;10517324;28;1415;-80
2023/04/15 13:39:12;;;;;;;;;;;;;;;8.74;100.00;94767.66;10536851;28;1144;-81
2023/04/15 13:44:14;;;;;;;;;;;;;;;8.58;100.00;94770.50;10533193;28;1768;-81
2023/04/15 13:49:16;;;;;;;;;;;;;;;8.24;100.00;94780.47;10530201;28;1911;-80
2023/04/15 13:54:19;;;;;;;;;;;;;;;8.02;100.00;94781.75;10534923;28;1194;-78
2023/04/15 13:59:21;;;;;;;;;;;;;;;7.83;100.00;94800.38;10528992;28;1459;-80
2023/04/15 14:04:24;;;;;;;;;;;;;;;7.78;100.00;94804.97;10527491;28;1500;-79
2023/04/15 14:09:26;;;;;;;;;;;;;;;7.81;100.00;94807.06;10534433;28;1979;-78
2023/04/15 14:14:30;;;;;;;;;;;;;;;7.89;100.00;94811.84;10533584;28;1191;-79
2023/04/15 14:19:33;;;;;;;;;;;;;;;8.05;100.00;94810.63;10541825;28;1538;-80
2023/04/15 14:24:35;;;;;;;;;;;;;;;8.28;100.00;94819.81;10534284;28;1226;-80
2023/04/15 14:29:37;;;;;;;;;;;;;;;8.49;100.00;94833.81;10528912;28;1890;-80
2023/04/15 14:34:40;;;;;;;;;;;;;;;8.46;100.00;94836.25;10530939;28;1415;-80
2023/04/15 14:39:42;;;;;;;;;;;;;;;8.56;100.00;94845.00;10535226;28;1427;-80
2023/04/15 14:44:45;;;;;;;;;;;;;;;8.56;100.00;94847.69;10545562;28;1120;-79
2023/04/15 14:49:48;;;;;;;;;;;;;;;8.52;100.00;94856.56;10537957;28;1967;-80
2023/04/15 14:54:51;;;;;;;;;;;;;;;8.32;100.00;94854.84;10543925;28;1139;-80
2023/04/15 14:59:55;;;;;;;;;;;;;;;8.12;100.00;94880.69;10544312;28;1450;-81
2023/04/15 15:04:58;;;;;;;;;;;;;;;7.60;100.00;94900.03;10525062;28;1371;-78
2023/04/15 15:10:00;;;;;;;;;;;;;;;7.12;100.00;94909.59;10546663;28;1906;-79
2023/04/15 15:15:03;;;;;;;;;;;;;;;6.98;100.00;94931.53;10525487;28;1420;-82
2023/04/15 15:20:18;;;;;;;;;;;;;;;6.70;100.00;94948.19;10536732;28;1434;-80
2023/04/15 15:25:24;;;;;;;;;;;;;;;6.42;100.00;94949.50;10537733;28;1136;-80
2023/04/15 15:30:36;;;;;;;;;;;;;;;6.25;100.00;94963.13;10540181;28;1923;-80
2023/04/15 15:35:39;;;;;;;;;;;;;;;6.07;100.00;94966.31;10532234;28;1770;-79
2023/04/15 15:40:42;;;;;;;;;;;;;;;5.90;100.00;94967.31;10526398;28;1530;-79
2023/04/15 15:45:44;;;;;;;;;;;;;;;5.95;100.00;94972.69;10540870;28;1210;-77
2023/04/15 15:50:47;;;;;;;;;;;;;;;5.88;100.00;94988.13;10531915;28;1957;-79
2023/04/15 15:55:49;;;;;;;;;;;;;;;5.89;100.00;94989.72;10539828;28;1131;-80
2023/04/15 16:00:54;;;;;;;;;;;;;;;5.88;100.00;94998.78;10538132;28;1510;-80
2023/04/15 16:05:57;;;;;;;;;;;;;;;5.88;100.00;95003.31;10531156;28;1430;-80
2023/04/15 16:11:00;;;;;;;;;;;;;;;5.90;100.00;95001.97;10538379;28;1984;-80
2023/04/15 16:16:02;;;;;;;;;;;;;;;5.97;100.00;95005.22;10555023;28;1420;-81
2023/04/15 16:21:05;;;;;;;;;;;;;;;6.04;100.00;95012.19;10533513;28;1450;-81
2023/04/15 16:26:07;;;;;;;;;;;;;;;6.14;100.00;95018.34;10525085;28;1187;-81
2023/04/15 16:31:09;;;;;;;;;;;;;;;6.05;100.00;95016.47;10534559;28;1918;-79
2023/04/15 16:36:12;;;;;;;;;;;;;;;6.00;100.00;95027.13;10534503;28;1411;-79
2023/04/15 16:41:15;;;;;;;;;;;;;;;6.04;100.00;95030.84;10530318;28;1530;-79
2023/04/15 16:46:18;;;;;;;;;;;;;;;6.01;100.00;95028.72;10536741;28;1179;-79
2023/04/15 16:51:20;;;;;;;;;;;;;;;6.02;100.00;95035.66;10530813;28;2326;-78
2023/04/15 16:56:23;;;;;;;;;;;;;;;5.88;100.00;95038.00;10537504;28;1159;-79
2023/04/15 17:01:26;;;;;;;;;;;;;;;5.77;100.00;95055.00;10532648;28;1525;-79
2023/04/15 17:06:29;;;;;;;;;;;;;;;5.56;100.00;95060.25;10534115;28;1427;-80
2023/04/15 17:11:33;;;;;;;;;;;;;;;5.51;100.00;95076.22;10536798;28;1981;-78
2023/04/15 17:16:36;;;;;;;;;;;;;;;5.44;100.00;95075.66;10536956;28;1301;-78
2023/04/15 17:21:38;;;;;;;;;;;;;;;5.42;100.00;95086.59;10528023;28;1321;-80
2023/04/15 17:26:41;;;;;;;;;;;;;;;5.35;100.00;95098.53;10535485;28;1495;-79
2023/04/15 17:31:43;;;;;;;;;;;;;;;5.30;100.00;95104.63;10538119;28;1981;-80
2023/04/15 17:36:45;;;;;;;;;;;;;;;5.29;100.00;95108.34;10529021;28;1024;-80
2023/04/15 17:41:48;;;;;;;;;;;;;;;5.30;100.00;95120.63;10534182;28;1431;-79
2023/04/15 17:46:52;;;;;;;;;;;;;;;5.29;100.00;95129.66;10535863;28;1159;-80
2023/04/15 17:51:55;;;;;;;;;;;;;;;5.25;100.00;95133.91;10531745;28;1967;-80
2023/04/15 17:56:58;;;;;;;;;;;;;;;5.17;100.00;95136.25;10542926;28;1328;-80
2023/04/15 18:02:00;;;;;;;;;;;;;;;5.19;100.00;95147.44;10524826;28;1442;-79
2023/04/15 18:07:03;;;;;;;;;;;;;;;5.19;100.00;95156.22;10529816;28;1144;-79
2023/04/15 18:12:06;;;;;;;;;;;;;;;5.21;100.00;95163.97;10538256;28;1898;-79
2023/04/15 18:17:09;;;;;;;;;;;;;;;5.15;100.00;95181.75;10546297;28;1123;-79
2023/04/15 18:22:11;;;;;;;;;;;;;;;5.10;100.00;95184.41;10571537;28;1448;-79
2023/04/15 18:27:14;;;;;;;;;;;;;;;5.14;100.00;95185.50;10574494;28;999;-79
2023/04/15 18:32:17;;;;;;;;;;;;;;;5.05;100.00;95197.69;10555837;28;2000;-79
2023/04/15 18:37:20;;;;;;;;;;;;;;;5.01;100.00;95202.69;10539447;28;1569;-80
2023/04/15 18:42:22;;;;;;;;;;;;;;;5.06;100.00;95210.75;10543002;28;1171;-80
2023/04/15 18:47:26;;;;;;;;;;;;;;;5.08;100.00;95213.94;10535633;28;1502;-80
2023/04/15 18:52:29;;;;;;;;;;;;;;;5.06;100.00;95228.59;10556562;28;2081;-81
2023/04/15 18:57:32;;;;;;;;;;;;;;;5.03;100.00;95235.22;10543681;28;1197;-79
2023/04/15 19:02:37;;;;;;;;;;;;;;;4.98;100.00;95237.03;10533754;28;1490;-80
2023/04/15 19:07:40;;;;;;;;;;;;;;;4.96;100.00;95236.47;10541132;28;1526;-82
2023/04/15 19:12:43;;;;;;;;;;;;;;;4.95;100.00;95248.97;10534457;28;1910;-80
2023/04/15 19:17:46;;;;;;;;;;;;;;;4.97;100.00;95262.06;10546129;28;1120;-79
2023/04/15 19:22:49;;;;;;;;;;;;;;;4.99;100.00;95266.06;10534204;28;1502;-82
2023/04/15 19:27:52;;;;;;;;;;;;;;;5.02;100.00;95273.56;10540929;28;1199;-82
2023/04/15 19:32:55;;;;;;;;;;;;;;;5.05;100.00;95277.59;10522921;28;1918;-79
2023/04/15 19:37:58;;;;;;;;;;;;;;;5.04;100.00;95281.31;10528001;28;1373;-80
2023/04/15 19:43:01;;;;;;;;;;;;;;;5.03;100.00;95280.53;10540212;28;1506;-80
2023/04/15 19:48:05;;;;;;;;;;;;;;;5.06;100.00;95293.31;10521699;28;1626;-81
2023/04/15 19:53:08;;;;;;;;;;;;;;;5.13;100.00;95295.78;10522029;28;2419;-81
2023/04/15 19:58:11;;;;;;;;;;;;;;;5.11;100.00;95297.91;10540072;28;1443;-80
2023/04/15 20:03:14;;;;;;;;;;;;;;;5.05;100.00;95298.91;10530653;28;1474;-81
2023/04/15 20:08:20;;;;;;;;;;;;;;;5.03;100.00;95299.16;10539271;28;1075;-81
2023/04/15 20:13:22;;;;;;;;;;;;;;;5.01;100.00;95309.25;10532436;28;1921;-81
2023/04/15 20:18:25;;;;;;;;;;;;;;;4.99;100.00;95310.56;10537472;28;1435;-80
2023/04/15 20:23:28;;;;;;;;;;;;;;;5.00;100.00;95320.97;10540710;28;1183;-78
2023/04/15 20:28:31;;;;;;;;;;;;;;;4.95;100.00;95318.22;10541994;28;1474;-79
2023/04/15 20:33:34;;;;;;;;;;;;;;;4.91;100.00;95324.31;10532068;28;1922;-81
2023/04/15 20:38:36;;;;;;;;;;;;;;;4.87;100.00;95322.13;10544489;28;1135;-79
2023/04/15 20:43:39;;;;;;;;;;;;;;;4.79;100.00;95327.09;10532066;28;1427;-79
2023/04/15 20:48:42;;;;;;;;;;;;;;;4.81;100.00;95331.13;10533952;28;1463;-79
2023/04/15 20:53:49;;;;;;;;;;;;;;;4.84;100.00;95332.50;10537142;28;1984;-80
2023/04/15 20:58:51;;;;;;;;;;;;;;;4.76;100.00;95338.25;10533794;28;1499;-79
2023/04/15 21:03:56;;;;;;;;;;;;;;;4.84;100.00;95345.81;10528487;28;1443;-81
2023/04/15 21:09:02;;;;;;;;;;;;;;;4.75;100.00;95353.41;10536482;28;1119;-81
2023/04/15 21:14:06;;;;;;;;;;;;;;;4.80;100.00;95350.81;10530082;28;1985;-80
2023/04/15 21:19:09;;;;;;;;;;;;;;;4.75;100.00;95352.59;10535081;28;1435;-80
2023/04/15 21:24:14;;;;;;;;;;;;;;;4.70;100.00;95366.66;10531900;28;1179;-79
2023/04/15 21:29:17;;;;;;;;;;;;;;;4.80;100.00;95366.00;10529968;28;1428;-80
2023/04/15 21:34:20;;;;;;;;;;;;;;;4.78;100.00;95371.56;10528193;28;1894;-79
2023/04/15 21:39:30;;;;;;;;;;;;;;;4.67;100.00;95377.00;10536048;28;1516;-80
2023/04/15 21:44:32;;;;;;;;;;;;;;;4.70;100.00;95374.66;10509197;28;1814;-80
2023/04/15 21:49:34;;;;;;;;;;;;;;;4.74;100.00;95383.75;10542251;28;1963;-79
2023/04/15 21:54:37;;;;;;;;;;;;;;;4.73;100.00;95387.47;10533824;28;1755;-80
2023/04/15 21:59:39;;;;;;;;;;;;;;;4.71;100.00;95394.91;10540641;28;2032;-78
2023/04/15 22:04:42;;;;;;;;;;;;;;;4.73;100.00;95402.66;10532892;28;2104;-77
2023/04/15 22:09:45;;;;;;;;;;;;;;;4.79;100.00;95407.00;10527818;28;1915;-78
2023/04/15 22:14:47;;;;;;;;;;;;;;;4.63;100.00;95421.13;10531245;28;1763;-75
2023/04/15 22:19:59;;;;;;;;;;;;;;;4.61;100.00;95421.38;10520196;28;2009;-76
2023/04/15 22:25:04;;;;;;;;;;;;;;;4.59;100.00;95424.31;10523468;28;1834;-74
2023/04/15 22:30:07;;;;;;;;;;;;;;;4.55;100.00;95427.69;10534830;28;1979;-76
2023/04/15 22:35:11;;;;;;;;;;;;;;;4.62;100.00;95430.97;10525592;28;1928;-77
2023/04/15 22:40:14;;;;;;;;;;;;;;;4.46;100.00;95434.47;10527921;28;1783;-74
2023/04/15 22:45:27;;;;;;;;;;;;;;;4.45;100.00;95432.84;10525078;28;1755;-76
2023/04/15 22:50:35;;;;;;;;;;;;;;;4.38;100.00;95441.00;10534572;28;1913;-78
2023/04/15 22:55:39;;;;;;;;;;;;;;;4.41;100.00;95443.19;10531117;28;1786;-74
2023/04/15 23:00:42;;;;;;;;;;;;;;;4.36;100.00;95447.63;10528756;28;2003;-75
2023/04/15 23:05:54;;;;;;;;;;;;;;;4.38;100.00;95448.16;10511488;28;2116;-74
2023/04/15 23:10:56;;;;;;;;;;;;;;;4.36;100.00;95450.28;10525787;28;2038;-75
2023/04/15 23:15:59;;;;;;;;;;;;;;;4.32;100.00;95455.25;10530072;28;2110;-75
2023/04/15 23:21:02;;;;;;;;;;;;;;;4.43;100.00;95461.56;10534053;28;1975;-75
2023/04/15 23:26:04;;;;;;;;;;;;;;;4.30;100.00;95468.00;10524662;28;2142;-74
2023/04/15 23:31:06;;;;;;;;;;;;;;;4.39;100.00;95463.09;10532097;28;2324;-76
2023/04/15 23:36:09;;;;;;;;;;;;;;;4.32;100.00;95466.72;10528455;28;2154;-75
2023/04/15 23:41:12;;;;;;;;;;;;;;;4.41;100.00;95472.47;10529274;28;2074;-75
2023/04/15 23:46:14;;;;;;;;;;;;;;;4.29;100.00;95472.53;10522919;28;2097;-75
2023/04/15 23:51:17;;;;;;;;;;;;;;;4.31;100.00;95475.75;10524466;28;2066;-76
2023/04/15 23:56:20;;;;;;;;;;;;;;;4.25;100.00;95479.38;10524243;28;2038;-76
